sensor_id;sensor_type;location;lat;lon;timestamp;temperature;humidity
18797;DHT22;9526;52.612;13.300;2023-06-14T00:01:33;14.30;99.90
18797;DHT22;9526;52.612;13.300;2023-06-14T00:03:57;14.20;99.90
18797;DHT22;9526;52.612;13.300;2023-06-14T00:06:21;14.20;99.90
18797;DHT22;9526;52.612;13.300;2023-06-14T00:08:46;14.20;99.90
18797;DHT22;9526;52.612;13.300;2023-06-14T00:11:10;14.10;99.90
18797;DHT22;9526;52.612;13.300;2023-06-14T00:13:34;14.00;99.90
18797;DHT22;9526;52.612;13.300;2023-06-14T00:15:59;14.00;99.90
18797;DHT22;9526;52.612;13.300;2023-06-14T00:18:23;14.00;99.90
18797;DHT22;9526;52.612;13.300;2023-06-14T00:20:47;13.90;99.90
18797;DHT22;9526;52.612;13.300;2023-06-14T00:23:11;13.90;99.90
18797;DHT22;9526;52.612;13.300;2023-06-14T00:25:34;13.90;99.90
18797;DHT22;9526;52.612;13.300;2023-06-14T00:27:58;13.80;99.90
18797;DHT22;9526;52.612;13.300;2023-06-14T00:30:22;13.80;99.90
18797;DHT22;9526;52.612;13.300;2023-06-14T00:32:47;13.80;99.90
18797;DHT22;9526;52.612;13.300;2023-06-14T00:35:12;13.70;99.90
18797;DHT22;9526;52.612;13.300;2023-06-14T00:37:37;13.80;99.90
18797;DHT22;9526;52.612;13.300;2023-06-14T00:40:01;13.70;99.90
18797;DHT22;9526;52.612;13.300;2023-06-14T00:42:25;13.70;99.90
18797;DHT22;9526;52.612;13.300;2023-06-14T00:44:49;13.60;99.90
18797;DHT22;9526;52.612;13.300;2023-06-14T00:47:13;13.60;99.90
18797;DHT22;9526;52.612;13.300;2023-06-14T00:49:38;13.50;99.90
18797;DHT22;9526;52.612;13.300;2023-06-14T00:52:02;13.50;99.90
18797;DHT22;9526;52.612;13.300;2023-06-14T00:54:26;13.50;99.90
18797;DHT22;9526;52.612;13.300;2023-06-14T00:56:50;13.40;99.90
18797;DHT22;9526;52.612;13.300;2023-06-14T00:59:14;13.40;99.90
18797;DHT22;9526;52.612;13.300;2023-06-14T01:01:38;13.40;99.90
18797;DHT22;9526;52.612;13.300;2023-06-14T01:04:03;13.30;99.90
18797;DHT22;9526;52.612;13.300;2023-06-14T01:06:36;13.30;99.90
18797;DHT22;9526;52.612;13.300;2023-06-14T01:09:15;13.30;99.90
18797;DHT22;9526;52.612;13.300;2023-06-14T01:11:49;13.20;99.90
18797;DHT22;9526;52.612;13.300;2023-06-14T01:14:16;13.30;99.90
18797;DHT22;9526;52.612;13.300;2023-06-14T01:16:41;13.20;99.90
18797;DHT22;9526;52.612;13.300;2023-06-14T01:19:05;13.20;99.90
18797;DHT22;9526;52.612;13.300;2023-06-14T01:21:36;13.10;99.90
18797;DHT22;9526;52.612;13.300;2023-06-14T01:24:05;13.10;99.90
18797;DHT22;9526;52.612;13.300;2023-06-14T01:26:30;13.10;99.90
18797;DHT22;9526;52.612;13.300;2023-06-14T01:28:54;13.00;99.90
18797;DHT22;9526;52.612;13.300;2023-06-14T01:31:21;13.00;99.90
18797;DHT22;9526;52.612;13.300;2023-06-14T01:33:45;13.00;99.90
18797;DHT22;9526;52.612;13.300;2023-06-14T01:36:11;12.90;99.90
18797;DHT22;9526;52.612;13.300;2023-06-14T01:38:36;12.90;99.90
18797;DHT22;9526;52.612;13.300;2023-06-14T01:41:02;12.90;99.90
18797;DHT22;9526;52.612;13.300;2023-06-14T01:43:28;12.80;99.90
18797;DHT22;9526;52.612;13.300;2023-06-14T01:45:54;12.80;99.90
18797;DHT22;9526;52.612;13.300;2023-06-14T01:48:19;12.70;99.90
18797;DHT22;9526;52.612;13.300;2023-06-14T01:50:43;12.70;99.90
18797;DHT22;9526;52.612;13.300;2023-06-14T01:53:07;12.60;99.90
18797;DHT22;9526;52.612;13.300;2023-06-14T01:55:32;12.60;99.90
18797;DHT22;9526;52.612;13.300;2023-06-14T01:58:03;12.60;99.90
18797;DHT22;9526;52.612;13.300;2023-06-14T02:00:27;12.50;99.90
18797;DHT22;9526;52.612;13.300;2023-06-14T02:02:51;12.50;99.90
18797;DHT22;9526;52.612;13.300;2023-06-14T02:05:14;12.50;99.90
18797;DHT22;9526;52.612;13.300;2023-06-14T02:07:43;12.40;99.90
18797;DHT22;9526;52.612;13.300;2023-06-14T02:10:08;12.40;99.90
18797;DHT22;9526;52.612;13.300;2023-06-14T02:12:32;12.40;99.90
18797;DHT22;9526;52.612;13.300;2023-06-14T02:14:57;12.40;99.90
18797;DHT22;9526;52.612;13.300;2023-06-14T02:17:21;12.40;99.90
18797;DHT22;9526;52.612;13.300;2023-06-14T02:19:45;12.40;99.90
18797;DHT22;9526;52.612;13.300;2023-06-14T02:22:08;12.40;99.90
18797;DHT22;9526;52.612;13.300;2023-06-14T02:24:32;12.30;99.90
18797;DHT22;9526;52.612;13.300;2023-06-14T02:26:57;12.40;99.90
18797;DHT22;9526;52.612;13.300;2023-06-14T02:29:21;12.30;99.90
18797;DHT22;9526;52.612;13.300;2023-06-14T02:31:46;12.30;99.90
18797;DHT22;9526;52.612;13.300;2023-06-14T02:34:10;12.30;99.90
18797;DHT22;9526;52.612;13.300;2023-06-14T02:36:34;12.30;99.90
18797;DHT22;9526;52.612;13.300;2023-06-14T02:39:04;12.30;99.90
18797;DHT22;9526;52.612;13.300;2023-06-14T02:41:27;12.30;99.90
18797;DHT22;9526;52.612;13.300;2023-06-14T02:43:51;12.30;99.90
18797;DHT22;9526;52.612;13.300;2023-06-14T02:46:15;12.30;99.90
18797;DHT22;9526;52.612;13.300;2023-06-14T02:48:40;12.30;99.90
18797;DHT22;9526;52.612;13.300;2023-06-14T02:51:04;12.20;99.90
18797;DHT22;9526;52.612;13.300;2023-06-14T02:53:29;12.30;99.90
18797;DHT22;9526;52.612;13.300;2023-06-14T02:55:53;12.30;99.90
18797;DHT22;9526;52.612;13.300;2023-06-14T02:58:17;12.20;99.90
18797;DHT22;9526;52.612;13.300;2023-06-14T03:00:41;12.20;99.90
18797;DHT22;9526;52.612;13.300;2023-06-14T03:03:05;12.20;99.90
18797;DHT22;9526;52.612;13.300;2023-06-14T03:05:36;12.20;99.90
18797;DHT22;9526;52.612;13.300;2023-06-14T03:08:03;12.20;99.90
18797;DHT22;9526;52.612;13.300;2023-06-14T03:10:28;12.10;99.90
18797;DHT22;9526;52.612;13.300;2023-06-14T03:12:53;12.20;99.90
18797;DHT22;9526;52.612;13.300;2023-06-14T03:15:17;12.10;99.90
18797;DHT22;9526;52.612;13.300;2023-06-14T03:17:42;12.10;99.90
18797;DHT22;9526;52.612;13.300;2023-06-14T03:20:10;12.10;99.90
18797;DHT22;9526;52.612;13.300;2023-06-14T03:22:35;12.10;99.90
18797;DHT22;9526;52.612;13.300;2023-06-14T03:25:00;12.10;99.90
18797;DHT22;9526;52.612;13.300;2023-06-14T03:27:29;12.10;99.90
18797;DHT22;9526;52.612;13.300;2023-06-14T03:29:54;12.10;99.90
18797;DHT22;9526;52.612;13.300;2023-06-14T03:32:18;12.10;99.90
18797;DHT22;9526;52.612;13.300;2023-06-14T03:34:41;12.10;99.90
18797;DHT22;9526;52.612;13.300;2023-06-14T03:37:13;12.20;99.90
18797;DHT22;9526;52.612;13.300;2023-06-14T03:39:39;12.20;99.90
18797;DHT22;9526;52.612;13.300;2023-06-14T03:42:13;12.20;99.90
18797;DHT22;9526;52.612;13.300;2023-06-14T03:44:38;12.20;99.90
18797;DHT22;9526;52.612;13.300;2023-06-14T03:47:02;12.20;99.90
18797;DHT22;9526;52.612;13.300;2023-06-14T03:49:26;12.20;99.90
18797;DHT22;9526;52.612;13.300;2023-06-14T03:51:50;12.30;99.90
18797;DHT22;9526;52.612;13.300;2023-06-14T03:54:17;12.30;99.90
18797;DHT22;9526;52.612;13.300;2023-06-14T03:57:02;12.40;99.90
18797;DHT22;9526;52.612;13.300;2023-06-14T03:59:27;12.40;99.90
18797;DHT22;9526;52.612;13.300;2023-06-14T04:01:51;12.40;99.90
18797;DHT22;9526;52.612;13.300;2023-06-14T04:04:15;12.50;99.90
18797;DHT22;9526;52.612;13.300;2023-06-14T04:06:40;12.50;99.90
18797;DHT22;9526;52.612;13.300;2023-06-14T04:09:06;12.60;99.90
18797;DHT22;9526;52.612;13.300;2023-06-14T04:11:30;12.70;99.90
18797;DHT22;9526;52.612;13.300;2023-06-14T04:13:55;12.80;99.90
18797;DHT22;9526;52.612;13.300;2023-06-14T04:16:20;12.80;99.90
18797;DHT22;9526;52.612;13.300;2023-06-14T04:18:43;12.90;99.90
18797;DHT22;9526;52.612;13.300;2023-06-14T04:21:08;12.90;99.90
18797;DHT22;9526;52.612;13.300;2023-06-14T04:23:32;13.00;99.90
18797;DHT22;9526;52.612;13.300;2023-06-14T04:25:56;13.10;99.90
18797;DHT22;9526;52.612;13.300;2023-06-14T04:28:24;13.20;99.90
18797;DHT22;9526;52.612;13.300;2023-06-14T04:30:52;13.20;99.90
18797;DHT22;9526;52.612;13.300;2023-06-14T04:33:17;13.30;99.90
18797;DHT22;9526;52.612;13.300;2023-06-14T04:35:42;13.40;99.90
18797;DHT22;9526;52.612;13.300;2023-06-14T04:38:10;13.50;99.90
18797;DHT22;9526;52.612;13.300;2023-06-14T04:40:34;13.60;99.90
18797;DHT22;9526;52.612;13.300;2023-06-14T04:43:05;13.60;99.90
18797;DHT22;9526;52.612;13.300;2023-06-14T04:45:29;13.70;99.90
18797;DHT22;9526;52.612;13.300;2023-06-14T04:47:55;13.70;99.90
18797;DHT22;9526;52.612;13.300;2023-06-14T04:50:22;13.80;99.90
18797;DHT22;9526;52.612;13.300;2023-06-14T04:52:46;13.90;99.90
18797;DHT22;9526;52.612;13.300;2023-06-14T04:55:13;13.90;99.90
18797;DHT22;9526;52.612;13.300;2023-06-14T04:57:38;14.10;99.90
18797;DHT22;9526;52.612;13.300;2023-06-14T05:00:05;14.20;99.90
18797;DHT22;9526;52.612;13.300;2023-06-14T05:02:34;14.30;99.90
18797;DHT22;9526;52.612;13.300;2023-06-14T05:05:01;14.40;99.90
18797;DHT22;9526;52.612;13.300;2023-06-14T05:07:25;14.40;99.90
18797;DHT22;9526;52.612;13.300;2023-06-14T05:09:49;14.40;99.90
18797;DHT22;9526;52.612;13.300;2023-06-14T05:12:12;14.40;99.90
18797;DHT22;9526;52.612;13.300;2023-06-14T05:14:40;14.60;99.90
18797;DHT22;9526;52.612;13.300;2023-06-14T05:17:05;14.60;99.90
18797;DHT22;9526;52.612;13.300;2023-06-14T05:19:29;14.70;99.90
18797;DHT22;9526;52.612;13.300;2023-06-14T05:21:54;14.80;99.90
18797;DHT22;9526;52.612;13.300;2023-06-14T05:24:18;14.80;99.90
18797;DHT22;9526;52.612;13.300;2023-06-14T05:26:42;14.90;99.90
18797;DHT22;9526;52.612;13.300;2023-06-14T05:29:06;14.90;99.90
18797;DHT22;9526;52.612;13.300;2023-06-14T05:31:29;15.00;99.90
18797;DHT22;9526;52.612;13.300;2023-06-14T05:33:53;15.10;99.90
18797;DHT22;9526;52.612;13.300;2023-06-14T05:36:17;15.20;99.90
18797;DHT22;9526;52.612;13.300;2023-06-14T05:38:43;15.30;99.90
18797;DHT22;9526;52.612;13.300;2023-06-14T05:41:06;15.40;99.90
18797;DHT22;9526;52.612;13.300;2023-06-14T05:43:30;15.50;99.90
18797;DHT22;9526;52.612;13.300;2023-06-14T05:45:54;15.50;99.90
18797;DHT22;9526;52.612;13.300;2023-06-14T05:48:18;15.60;99.90
18797;DHT22;9526;52.612;13.300;2023-06-14T05:50:41;15.70;99.90
18797;DHT22;9526;52.612;13.300;2023-06-14T05:53:05;15.80;99.90
18797;DHT22;9526;52.612;13.300;2023-06-14T05:55:30;15.80;99.90
18797;DHT22;9526;52.612;13.300;2023-06-14T05:57:54;15.90;99.90
18797;DHT22;9526;52.612;13.300;2023-06-14T06:00:18;15.90;99.90
18797;DHT22;9526;52.612;13.300;2023-06-14T06:02:42;16.00;99.90
18797;DHT22;9526;52.612;13.300;2023-06-14T06:05:07;16.10;99.90
18797;DHT22;9526;52.612;13.300;2023-06-14T06:07:31;16.10;99.90
18797;DHT22;9526;52.612;13.300;2023-06-14T06:09:58;16.20;99.90
18797;DHT22;9526;52.612;13.300;2023-06-14T06:12:24;16.30;99.90
18797;DHT22;9526;52.612;13.300;2023-06-14T06:14:47;16.30;99.90
18797;DHT22;9526;52.612;13.300;2023-06-14T06:17:11;16.40;99.90
18797;DHT22;9526;52.612;13.300;2023-06-14T06:19:35;16.40;99.90
18797;DHT22;9526;52.612;13.300;2023-06-14T06:21:58;16.50;99.90
18797;DHT22;9526;52.612;13.300;2023-06-14T06:24:22;16.50;99.90
18797;DHT22;9526;52.612;13.300;2023-06-14T06:26:46;16.50;99.90
18797;DHT22;9526;52.612;13.300;2023-06-14T06:29:11;16.50;99.90
18797;DHT22;9526;52.612;13.300;2023-06-14T06:31:35;16.60;99.90
18797;DHT22;9526;52.612;13.300;2023-06-14T06:33:59;16.70;99.90
18797;DHT22;9526;52.612;13.300;2023-06-14T06:36:22;16.80;99.90
18797;DHT22;9526;52.612;13.300;2023-06-14T06:38:46;16.70;99.90
18797;DHT22;9526;52.612;13.300;2023-06-14T06:41:10;16.90;99.90
18797;DHT22;9526;52.612;13.300;2023-06-14T06:43:34;16.90;99.90
18797;DHT22;9526;52.612;13.300;2023-06-14T06:45:59;16.90;99.90
18797;DHT22;9526;52.612;13.300;2023-06-14T06:48:23;17.00;99.90
18797;DHT22;9526;52.612;13.300;2023-06-14T06:50:46;17.00;99.90
18797;DHT22;9526;52.612;13.300;2023-06-14T06:53:10;16.90;99.90
18797;DHT22;9526;52.612;13.300;2023-06-14T06:55:39;17.10;99.90
18797;DHT22;9526;52.612;13.300;2023-06-14T06:58:02;17.20;99.90
18797;DHT22;9526;52.612;13.300;2023-06-14T07:00:27;17.30;99.90
18797;DHT22;9526;52.612;13.300;2023-06-14T07:02:52;17.40;99.90
18797;DHT22;9526;52.612;13.300;2023-06-14T07:05:17;17.50;99.90
18797;DHT22;9526;52.612;13.300;2023-06-14T07:07:41;17.60;99.90
18797;DHT22;9526;52.612;13.300;2023-06-14T07:10:05;17.70;99.90
18797;DHT22;9526;52.612;13.300;2023-06-14T07:12:30;17.90;99.90
18797;DHT22;9526;52.612;13.300;2023-06-14T07:14:56;17.90;99.90
18797;DHT22;9526;52.612;13.300;2023-06-14T07:17:21;18.00;99.90
18797;DHT22;9526;52.612;13.300;2023-06-14T07:19:46;18.10;99.90
18797;DHT22;9526;52.612;13.300;2023-06-14T07:22:11;18.30;99.90
18797;DHT22;9526;52.612;13.300;2023-06-14T07:24:35;18.40;99.90
18797;DHT22;9526;52.612;13.300;2023-06-14T07:27:00;18.50;99.90
18797;DHT22;9526;52.612;13.300;2023-06-14T07:29:25;18.60;99.90
18797;DHT22;9526;52.612;13.300;2023-06-14T07:31:49;18.70;99.90
18797;DHT22;9526;52.612;13.300;2023-06-14T07:34:13;18.60;99.90
18797;DHT22;9526;52.612;13.300;2023-06-14T07:36:39;18.80;99.90
18797;DHT22;9526;52.612;13.300;2023-06-14T07:39:03;18.80;99.90
18797;DHT22;9526;52.612;13.300;2023-06-14T07:41:28;18.90;99.90
18797;DHT22;9526;52.612;13.300;2023-06-14T07:43:51;19.00;99.90
18797;DHT22;9526;52.612;13.300;2023-06-14T07:46:15;19.20;99.90
18797;DHT22;9526;52.612;13.300;2023-06-14T07:48:39;19.20;99.90
18797;DHT22;9526;52.612;13.300;2023-06-14T07:51:03;19.30;99.90
18797;DHT22;9526;52.612;13.300;2023-06-14T07:53:28;19.40;99.90
18797;DHT22;9526;52.612;13.300;2023-06-14T07:55:52;19.50;99.90
18797;DHT22;9526;52.612;13.300;2023-06-14T07:58:16;19.60;99.90
18797;DHT22;9526;52.612;13.300;2023-06-14T08:00:40;19.80;99.90
18797;DHT22;9526;52.612;13.300;2023-06-14T08:03:03;19.70;99.90
18797;DHT22;9526;52.612;13.300;2023-06-14T08:05:28;19.80;99.90
18797;DHT22;9526;52.612;13.300;2023-06-14T08:07:52;19.80;99.90
18797;DHT22;9526;52.612;13.300;2023-06-14T08:10:17;19.80;99.90
18797;DHT22;9526;52.612;13.300;2023-06-14T08:12:41;20.00;99.90
18797;DHT22;9526;52.612;13.300;2023-06-14T08:15:05;20.10;99.90
18797;DHT22;9526;52.612;13.300;2023-06-14T08:17:36;20.10;99.90
18797;DHT22;9526;52.612;13.300;2023-06-14T08:19:59;20.30;99.90
18797;DHT22;9526;52.612;13.300;2023-06-14T08:22:23;20.50;99.90
18797;DHT22;9526;52.612;13.300;2023-06-14T08:24:50;20.50;99.90
18797;DHT22;9526;52.612;13.300;2023-06-14T08:27:16;20.50;99.90
18797;DHT22;9526;52.612;13.300;2023-06-14T08:29:40;20.70;99.90
18797;DHT22;9526;52.612;13.300;2023-06-14T08:32:04;20.60;99.90
18797;DHT22;9526;52.612;13.300;2023-06-14T08:34:28;20.80;99.90
18797;DHT22;9526;52.612;13.300;2023-06-14T08:36:52;20.90;99.90
18797;DHT22;9526;52.612;13.300;2023-06-14T08:39:16;21.00;99.90
18797;DHT22;9526;52.612;13.300;2023-06-14T08:41:40;21.10;99.90
18797;DHT22;9526;52.612;13.300;2023-06-14T08:44:05;20.80;99.90
18797;DHT22;9526;52.612;13.300;2023-06-14T08:46:31;20.60;99.90
18797;DHT22;9526;52.612;13.300;2023-06-14T08:48:57;20.70;99.90
18797;DHT22;9526;52.612;13.300;2023-06-14T08:51:22;20.90;99.90
18797;DHT22;9526;52.612;13.300;2023-06-14T08:53:53;21.20;99.90
18797;DHT22;9526;52.612;13.300;2023-06-14T08:56:20;21.20;99.90
18797;DHT22;9526;52.612;13.300;2023-06-14T08:58:44;20.90;99.90
18797;DHT22;9526;52.612;13.300;2023-06-14T09:01:09;21.10;99.90
18797;DHT22;9526;52.612;13.300;2023-06-14T09:03:36;21.20;99.90
18797;DHT22;9526;52.612;13.300;2023-06-14T09:06:03;21.40;99.90
18797;DHT22;9526;52.612;13.300;2023-06-14T09:08:27;21.50;99.90
18797;DHT22;9526;52.612;13.300;2023-06-14T09:10:52;21.70;99.90
18797;DHT22;9526;52.612;13.300;2023-06-14T09:13:17;21.70;99.90
18797;DHT22;9526;52.612;13.300;2023-06-14T09:15:41;21.60;99.90
18797;DHT22;9526;52.612;13.300;2023-06-14T09:18:06;21.50;99.90
18797;DHT22;9526;52.612;13.300;2023-06-14T09:20:31;21.70;99.90
18797;DHT22;9526;52.612;13.300;2023-06-14T09:22:55;21.60;99.90
18797;DHT22;9526;52.612;13.300;2023-06-14T09:25:18;21.70;99.90
18797;DHT22;9526;52.612;13.300;2023-06-14T09:28:00;21.70;99.90
18797;DHT22;9526;52.612;13.300;2023-06-14T09:30:23;21.80;99.90
18797;DHT22;9526;52.612;13.300;2023-06-14T09:32:47;21.90;99.90
18797;DHT22;9526;52.612;13.300;2023-06-14T09:35:12;21.80;99.90
18797;DHT22;9526;52.612;13.300;2023-06-14T09:37:41;21.90;99.90
18797;DHT22;9526;52.612;13.300;2023-06-14T09:40:05;21.90;99.90
18797;DHT22;9526;52.612;13.300;2023-06-14T09:42:31;22.10;99.90
18797;DHT22;9526;52.612;13.300;2023-06-14T09:44:57;22.20;99.80
18797;DHT22;9526;52.612;13.300;2023-06-14T09:47:22;22.30;99.90
18797;DHT22;9526;52.612;13.300;2023-06-14T09:49:46;22.50;99.90
18797;DHT22;9526;52.612;13.300;2023-06-14T09:52:14;22.40;99.90
18797;DHT22;9526;52.612;13.300;2023-06-14T09:54:42;22.50;99.90
18797;DHT22;9526;52.612;13.300;2023-06-14T09:57:09;22.60;98.90
18797;DHT22;9526;52.612;13.300;2023-06-14T09:59:35;22.80;98.30
18797;DHT22;9526;52.612;13.300;2023-06-14T10:02:02;22.20;97.70
18797;DHT22;9526;52.612;13.300;2023-06-14T10:04:31;22.10;98.40
18797;DHT22;9526;52.612;13.300;2023-06-14T10:06:57;22.30;98.00
18797;DHT22;9526;52.612;13.300;2023-06-14T10:09:23;22.30;97.80
18797;DHT22;9526;52.612;13.300;2023-06-14T10:11:47;22.30;98.20
18797;DHT22;9526;52.612;13.300;2023-06-14T10:14:12;22.10;98.10
18797;DHT22;9526;52.612;13.300;2023-06-14T10:16:39;22.30;98.60
18797;DHT22;9526;52.612;13.300;2023-06-14T10:19:17;22.20;98.10
18797;DHT22;9526;52.612;13.300;2023-06-14T10:21:49;22.50;98.10
18797;DHT22;9526;52.612;13.300;2023-06-14T10:24:18;22.60;98.30
18797;DHT22;9526;52.612;13.300;2023-06-14T10:26:57;22.60;97.40
18797;DHT22;9526;52.612;13.300;2023-06-14T10:29:21;22.50;99.90
18797;DHT22;9526;52.612;13.300;2023-06-14T10:31:46;22.40;96.30
18797;DHT22;9526;52.612;13.300;2023-06-14T10:34:11;22.30;97.70
18797;DHT22;9526;52.612;13.300;2023-06-14T10:36:35;22.70;97.40
18797;DHT22;9526;52.612;13.300;2023-06-14T10:39:03;22.90;96.30
18797;DHT22;9526;52.612;13.300;2023-06-14T10:41:29;22.90;96.00
18797;DHT22;9526;52.612;13.300;2023-06-14T10:47:07;23.30;96.60
18797;DHT22;9526;52.612;13.300;2023-06-14T10:49:41;23.30;95.90
18797;DHT22;9526;52.612;13.300;2023-06-14T10:52:08;23.50;94.80
18797;DHT22;9526;52.612;13.300;2023-06-14T10:55:03;23.70;95.10
18797;DHT22;9526;52.612;13.300;2023-06-14T10:57:34;23.80;94.20
18797;DHT22;9526;52.612;13.300;2023-06-14T11:00:03;23.80;94.70
18797;DHT22;9526;52.612;13.300;2023-06-14T11:02:51;24.10;93.30
18797;DHT22;9526;52.612;13.300;2023-06-14T11:05:24;24.10;93.10
18797;DHT22;9526;52.612;13.300;2023-06-14T11:07:58;24.30;91.90
18797;DHT22;9526;52.612;13.300;2023-06-14T11:10:36;24.30;92.20
18797;DHT22;9526;52.612;13.300;2023-06-14T11:13:01;24.60;91.80
18797;DHT22;9526;52.612;13.300;2023-06-14T11:15:29;24.80;88.80
18797;DHT22;9526;52.612;13.300;2023-06-14T11:17:53;24.90;89.00
18797;DHT22;9526;52.612;13.300;2023-06-14T11:20:20;24.80;89.10
18797;DHT22;9526;52.612;13.300;2023-06-14T11:22:46;24.70;85.20
18797;DHT22;9526;52.612;13.300;2023-06-14T11:25:12;24.70;87.90
18797;DHT22;9526;52.612;13.300;2023-06-14T11:27:36;24.80;86.10
18797;DHT22;9526;52.612;13.300;2023-06-14T11:30:00;24.70;85.40
18797;DHT22;9526;52.612;13.300;2023-06-14T11:32:25;24.90;87.90
18797;DHT22;9526;52.612;13.300;2023-06-14T11:34:49;24.90;89.10
18797;DHT22;9526;52.612;13.300;2023-06-14T11:37:13;24.90;90.90
18797;DHT22;9526;52.612;13.300;2023-06-14T11:39:43;25.10;87.30
18797;DHT22;9526;52.612;13.300;2023-06-14T11:42:07;25.20;84.00
18797;DHT22;9526;52.612;13.300;2023-06-14T11:44:32;25.10;84.50
18797;DHT22;9526;52.612;13.300;2023-06-14T11:46:56;25.00;84.20
18797;DHT22;9526;52.612;13.300;2023-06-14T11:49:21;24.80;85.60
18797;DHT22;9526;52.612;13.300;2023-06-14T11:51:46;24.80;81.40
18797;DHT22;9526;52.612;13.300;2023-06-14T11:54:10;24.70;81.90
18797;DHT22;9526;52.612;13.300;2023-06-14T11:56:36;25.00;83.90
18797;DHT22;9526;52.612;13.300;2023-06-14T11:59:00;25.10;84.60
18797;DHT22;9526;52.612;13.300;2023-06-14T12:01:30;25.10;82.00
18797;DHT22;9526;52.612;13.300;2023-06-14T12:03:54;25.00;81.70
18797;DHT22;9526;52.612;13.300;2023-06-14T12:06:28;25.10;82.70
18797;DHT22;9526;52.612;13.300;2023-06-14T12:08:56;25.20;81.60
18797;DHT22;9526;52.612;13.300;2023-06-14T12:11:20;25.90;85.30
18797;DHT22;9526;52.612;13.300;2023-06-14T12:13:44;26.00;82.80
18797;DHT22;9526;52.612;13.300;2023-06-14T12:16:08;25.80;79.90
18797;DHT22;9526;52.612;13.300;2023-06-14T12:18:33;25.70;79.60
18797;DHT22;9526;52.612;13.300;2023-06-14T12:20:59;26.00;80.10
18797;DHT22;9526;52.612;13.300;2023-06-14T12:23:26;26.50;81.10
18797;DHT22;9526;52.612;13.300;2023-06-14T12:25:50;26.10;76.50
18797;DHT22;9526;52.612;13.300;2023-06-14T12:28:14;26.10;78.10
18797;DHT22;9526;52.612;13.300;2023-06-14T12:30:39;26.30;78.00
18797;DHT22;9526;52.612;13.300;2023-06-14T12:33:03;26.70;79.10
18797;DHT22;9526;52.612;13.300;2023-06-14T12:35:28;27.00;74.80
18797;DHT22;9526;52.612;13.300;2023-06-14T12:37:52;26.60;74.50
18797;DHT22;9526;52.612;13.300;2023-06-14T12:40:18;26.60;76.50
18797;DHT22;9526;52.612;13.300;2023-06-14T12:42:42;27.20;81.60
18797;DHT22;9526;52.612;13.300;2023-06-14T12:45:09;27.60;76.10
18797;DHT22;9526;52.612;13.300;2023-06-14T12:47:33;27.80;74.90
18797;DHT22;9526;52.612;13.300;2023-06-14T12:49:58;28.00;73.20
18797;DHT22;9526;52.612;13.300;2023-06-14T12:52:21;27.80;72.40
18797;DHT22;9526;52.612;13.300;2023-06-14T12:54:45;28.30;76.60
18797;DHT22;9526;52.612;13.300;2023-06-14T12:57:10;28.10;69.40
18797;DHT22;9526;52.612;13.300;2023-06-14T12:59:34;28.00;70.80
18797;DHT22;9526;52.612;13.300;2023-06-14T13:01:57;28.00;71.00
18797;DHT22;9526;52.612;13.300;2023-06-14T13:04:22;27.50;71.70
18797;DHT22;9526;52.612;13.300;2023-06-14T13:06:46;27.70;68.50
18797;DHT22;9526;52.612;13.300;2023-06-14T13:09:10;27.20;68.10
18797;DHT22;9526;52.612;13.300;2023-06-14T13:11:36;27.60;73.50
18797;DHT22;9526;52.612;13.300;2023-06-14T13:14:01;28.30;72.70
18797;DHT22;9526;52.612;13.300;2023-06-14T13:16:45;28.40;70.00
18797;DHT22;9526;52.612;13.300;2023-06-14T13:19:09;28.00;64.40
18797;DHT22;9526;52.612;13.300;2023-06-14T13:21:33;26.90;65.60
18797;DHT22;9526;52.612;13.300;2023-06-14T13:23:56;27.10;65.70
18797;DHT22;9526;52.612;13.300;2023-06-14T13:26:20;26.60;63.50
18797;DHT22;9526;52.612;13.300;2023-06-14T13:28:44;26.50;65.40
18797;DHT22;9526;52.612;13.300;2023-06-14T13:31:09;27.20;67.40
18797;DHT22;9526;52.612;13.300;2023-06-14T13:33:32;27.40;66.40
18797;DHT22;9526;52.612;13.300;2023-06-14T13:35:56;27.50;69.20
18797;DHT22;9526;52.612;13.300;2023-06-14T13:38:20;27.50;64.50
18797;DHT22;9526;52.612;13.300;2023-06-14T13:40:43;27.20;66.70
18797;DHT22;9526;52.612;13.300;2023-06-14T13:43:07;26.80;63.80
18797;DHT22;9526;52.612;13.300;2023-06-14T13:45:32;26.90;63.90
18797;DHT22;9526;52.612;13.300;2023-06-14T13:47:57;26.90;62.90
18797;DHT22;9526;52.612;13.300;2023-06-14T13:50:21;27.00;63.10
18797;DHT22;9526;52.612;13.300;2023-06-14T13:52:44;26.90;63.50
18797;DHT22;9526;52.612;13.300;2023-06-14T13:55:09;27.10;65.20
18797;DHT22;9526;52.612;13.300;2023-06-14T13:57:32;26.90;62.80
18797;DHT22;9526;52.612;13.300;2023-06-14T13:59:56;26.50;65.20
18797;DHT22;9526;52.612;13.300;2023-06-14T14:02:33;26.30;67.10
18797;DHT22;9526;52.612;13.300;2023-06-14T14:04:58;26.10;67.90
18797;DHT22;9526;52.612;13.300;2023-06-14T14:07:22;25.80;69.20
18797;DHT22;9526;52.612;13.300;2023-06-14T14:09:46;25.70;69.10
18797;DHT22;9526;52.612;13.300;2023-06-14T14:12:09;25.50;69.60
18797;DHT22;9526;52.612;13.300;2023-06-14T14:14:33;25.30;69.50
18797;DHT22;9526;52.612;13.300;2023-06-14T14:16:57;25.00;70.10
18797;DHT22;9526;52.612;13.300;2023-06-14T14:19:21;24.80;70.40
18797;DHT22;9526;52.612;13.300;2023-06-14T14:21:47;24.60;71.30
18797;DHT22;9526;52.612;13.300;2023-06-14T14:24:11;24.60;71.40
18797;DHT22;9526;52.612;13.300;2023-06-14T14:26:35;24.50;71.60
18797;DHT22;9526;52.612;13.300;2023-06-14T14:28:58;24.30;71.90
18797;DHT22;9526;52.612;13.300;2023-06-14T14:31:22;24.20;72.30
18797;DHT22;9526;52.612;13.300;2023-06-14T14:33:46;24.20;73.30
18797;DHT22;9526;52.612;13.300;2023-06-14T14:36:10;24.20;73.10
18797;DHT22;9526;52.612;13.300;2023-06-14T14:38:35;24.10;73.30
18797;DHT22;9526;52.612;13.300;2023-06-14T14:40:59;24.00;72.90
18797;DHT22;9526;52.612;13.300;2023-06-14T14:43:23;24.00;73.30
18797;DHT22;9526;52.612;13.300;2023-06-14T14:45:46;23.90;74.10
18797;DHT22;9526;52.612;13.300;2023-06-14T14:48:10;23.90;73.60
18797;DHT22;9526;52.612;13.300;2023-06-14T14:50:34;23.90;74.80
18797;DHT22;9526;52.612;13.300;2023-06-14T14:52:57;23.90;75.20
18797;DHT22;9526;52.612;13.300;2023-06-14T14:55:23;23.80;74.70
18797;DHT22;9526;52.612;13.300;2023-06-14T14:57:47;23.80;75.80
18797;DHT22;9526;52.612;13.300;2023-06-14T15:00:11;23.90;76.40
18797;DHT22;9526;52.612;13.300;2023-06-14T15:02:35;23.90;75.80
18797;DHT22;9526;52.612;13.300;2023-06-14T15:04:59;23.90;76.10
18797;DHT22;9526;52.612;13.300;2023-06-14T15:07:24;23.80;74.80
18797;DHT22;9526;52.612;13.300;2023-06-14T15:09:47;23.70;76.40
18797;DHT22;9526;52.612;13.300;2023-06-14T15:12:14;23.70;77.40
18797;DHT22;9526;52.612;13.300;2023-06-14T15:14:38;23.60;79.40
18797;DHT22;9526;52.612;13.300;2023-06-14T15:17:02;23.50;76.50
18797;DHT22;9526;52.612;13.300;2023-06-14T15:19:29;23.40;76.10
18797;DHT22;9526;52.612;13.300;2023-06-14T15:21:53;23.30;77.00